Wetterdaten: Woche 14.09.09 - 20.09.09 (KW38)
Datum Zeit Temp. A. Feuchte A. Luftdruck Regen Wind Richtung Taupunkt Windchill Windben
14.09.2009 00:00 14,8 C 86 % 1013,9 hPa 0,0 l/m 0,0 km/h N 12,5 C 14,8 C 0,0 km/h
14.09.2009 01:00 14,6 C 86 % 1013,5 hPa 0,0 l/m 0,0 km/h N 12,3 C 14,6 C 0,0 km/h
14.09.2009 02:00 14,8 C 82 % 1013,5 hPa 0,0 l/m 0,0 km/h N 11,8 C 14,8 C 0,4 km/h
14.09.2009 03:00 14,6 C 85 % 1013,8 hPa 0,0 l/m 0,3 km/h N 12,0 C 14,6 C 3,6 km/h
14.09.2009 04:00 14,1 C 88 % 1014,0 hPa 0,3 l/m 0,1 km/h N 12,0 C 14,1 C 2,4 km/h
14.09.2009 05:00 13,5 C 90 % 1014,0 hPa 0,0 l/m 0,1 km/h N 11,8 C 13,5 C 2,8 km/h
14.09.2009 06:00 13,3 C 90 % 1014,3 hPa 0,0 l/m 0,2 km/h N 11,6 C 13,3 C 2,8 km/h
14.09.2009 07:00 13,1 C 90 % 1014,4 hPa 0,3 l/m 0,1 km/h N 11,5 C 13,1 C 1,6 km/h
14.09.2009 08:00 13,3 C 91 % 1014,7 hPa 0,0 l/m 0,2 km/h N 11,9 C 13,3 C 1,6 km/h
14.09.2009 09:00 14,0 C 89 % 1015,0 hPa 0,0 l/m 0,9 km/h NW 12,2 C 14,0 C 4,0 km/h
14.09.2009 10:00 14,2 C 89 % 1015,4 hPa 0,0 l/m 0,3 km/h N 12,4 C 14,2 C 3,7 km/h
14.09.2009 11:00 14,2 C 88 % 1015,4 hPa 0,0 l/m 0,3 km/h NW 12,2 C 14,2 C 1,6 km/h
14.09.2009 13:00 15,9 C 80 % 1015,1 hPa 0,3 l/m 0,7 km/h N 12,5 C 15,9 C 3,7 km/h
14.09.2009 14:00 16,9 C 79 % 1015,0 hPa 0,0 l/m 0,7 km/h S 13,2 C 16,9 C 5,2 km/h
14.09.2009 15:00 18,3 C 72 % 1014,6 hPa 0,0 l/m 0,4 km/h N 13,2 C 18,3 C 3,2 km/h
14.09.2009 16:00 18,8 C 70 % 1014,6 hPa 0,0 l/m 0,2 km/h N 13,2 C 18,8 C 2,0 km/h
14.09.2009 17:00 18,5 C 72 % 1014,5 hPa 0,0 l/m 0,0 km/h N 13,4 C 18,5 C 1,2 km/h
14.09.2009 18:00 17,6 C 79 % 1014,7 hPa 0,0 l/m 0,0 km/h N 14,0 C 17,6 C 0,0 km/h
14.09.2009 19:00 16,9 C 84 % 1015,0 hPa 0,0 l/m 0,0 km/h N 14,1 C 16,9 C 0,0 km/h
14.09.2009 20:00 16,6 C 86 % 1015,5 hPa 0,0 l/m 0,1 km/h N 14,2 C 16,6 C 1,6 km/h
14.09.2009 21:00 15,9 C 90 % 1016,1 hPa 2,7 l/m 0,1 km/h N 14,2 C 15,9 C 0,8 km/h
14.09.2009 22:00 15,6 C 92 % 1016,1 hPa 0,0 l/m 0,0 km/h N 14,2 C 15,6 C 0,4 km/h
14.09.2009 23:00 15,5 C 93 % 1016,2 hPa 0,9 l/m 0,0 km/h N 14,3 C 15,5 C 0,4 km/h
15.09.2009 00:00 15,3 C 93 % 1016,2 hPa 1,8 l/m 0,0 km/h N 14,2 C 15,3 C 0,4 km/h
15.09.2009 01:00 15,3 C 93 % 1015,9 hPa 0,9 l/m 0,0 km/h N 14,2 C 15,3 C 0,0 km/h
15.09.2009 02:00 15,2 C 94 % 1015,8 hPa 0,0 l/m 0,0 km/h N 14,2 C 15,2 C 0,0 km/h
15.09.2009 03:00 15,3 C 94 % 1015,8 hPa 0,0 l/m 0,0 km/h N 14,3 C 15,3 C 0,0 km/h
15.09.2009 04:00 15,3 C 94 % 1015,8 hPa 0,0 l/m 0,0 km/h N 14,3 C 15,3 C 0,0 km/h
15.09.2009 05:00 15,0 C 94 % 1015,7 hPa 0,0 l/m 0,0 km/h N 14,0 C 15,0 C 0,0 km/h
15.09.2009 06:00 14,8 C 94 % 1015,9 hPa 0,0 l/m 0,0 km/h N 13,8 C 14,8 C 0,0 km/h
15.09.2009 07:00 14,6 C 94 % 1016,3 hPa 0,0 l/m 0,0 km/h N 13,6 C 14,6 C 0,0 km/h
15.09.2009 08:00 15,0 C 94 % 1016,6 hPa 0,0 l/m 0,0 km/h N 14,1 C 15,0 C 0,0 km/h
15.09.2009 09:00 15,7 C 94 % 1017,2 hPa 0,0 l/m 0,0 km/h N 14,7 C 15,7 C 0,0 km/h
15.09.2009 10:00 16,9 C 90 % 1017,3 hPa 0,0 l/m 0,0 km/h N 15,3 C 16,9 C 0,8 km/h
15.09.2009 11:00 18,4 C 83 % 1017,3 hPa 0,0 l/m 0,8 km/h S 15,5 C 18,4 C 5,6 km/h
15.09.2009 12:00 18,8 C 81 % 1017,2 hPa 0,0 l/m 1,5 km/h S 15,5 C 18,8 C 6,8 km/h
15.09.2009 13:00 19,7 C 79 % 1016,9 hPa 0,0 l/m 0,9 km/h S-SW 15,9 C 19,7 C 6,0 km/h
15.09.2009 14:00 20,1 C 78 % 1016,4 hPa 0,0 l/m 0,7 km/h S-SW 16,2 C 20,1 C 5,2 km/h
15.09.2009 15:00 21,4 C 73 % 1016,2 hPa 0,0 l/m 1,2 km/h O 16,3 C 21,4 C 6,4 km/h
15.09.2009 16:00 21,4 C 71 % 1015,9 hPa 0,0 l/m 1,8 km/h O 15,8 C 21,4 C 6,0 km/h
15.09.2009 17:00 21,1 C 72 % 1015,9 hPa 0,0 l/m 1,1 km/h O 15,8 C 21,1 C 5,6 km/h
15.09.2009 18:00 20,2 C 77 % 1015,7 hPa 0,0 l/m 0,3 km/h N 16,0 C 20,2 C 4,4 km/h
15.09.2009 19:00 19,5 C 82 % 1015,6 hPa 0,0 l/m 0,1 km/h N 16,2 C 19,5 C 3,2 km/h
15.09.2009 20:00 17,6 C 88 % 1015,9 hPa 0,0 l/m 0,0 km/h N 15,5 C 17,6 C 0,0 km/h
15.09.2009 21:00 15,8 C 91 % 1016,2 hPa 0,0 l/m 0,0 km/h N 14,3 C 15,8 C 0,0 km/h
15.09.2009 22:00 15,1 C 93 % 1016,3 hPa 0,0 l/m 0,0 km/h N 13,9 C 15,1 C 0,0 km/h
15.09.2009 23:00 14,7 C 93 % 1015,8 hPa 0,0 l/m 0,0 km/h N 13,6 C 14,7 C 0,0 km/h
16.09.2009 00:00 14,9 C 93 % 1015,5 hPa 0,0 l/m 0,0 km/h N 13,8 C 14,9 C 0,0 km/h
16.09.2009 01:00 14,5 C 93 % 1015,1 hPa 0,0 l/m 0,0 km/h N 13,4 C 14,5 C 0,0 km/h
16.09.2009 02:00 13,8 C 93 % 1015,2 hPa 0,0 l/m 0,0 km/h N 12,7 C 13,8 C 0,0 km/h
16.09.2009 03:00 13,2 C 93 % 1015,0 hPa 0,0 l/m 0,0 km/h N 12,1 C 13,2 C 0,0 km/h
16.09.2009 04:00 12,8 C 94 % 1014,6 hPa 0,0 l/m 0,0 km/h N 11,8 C 12,8 C 0,0 km/h
16.09.2009 05:00 12,8 C 94 % 1014,3 hPa 0,0 l/m 0,0 km/h N 11,8 C 12,8 C 0,0 km/h
16.09.2009 06:00 12,4 C 94 % 1014,2 hPa 0,0 l/m 0,0 km/h N 11,5 C 12,4 C 0,0 km/h
16.09.2009 07:00 13,9 C 94 % 1014,3 hPa 0,0 l/m 0,0 km/h N 13,0 C 13,9 C 0,0 km/h
16.09.2009 08:00 16,7 C 89 % 1014,4 hPa 0,0 l/m 0,3 km/h N 14,8 C 16,7 C 3,6 km/h
16.09.2009 09:00 18,0 C 84 % 1014,3 hPa 0,0 l/m 0,4 km/h N 15,2 C 18,0 C 4,0 km/h
16.09.2009 10:00 20,0 C 80 % 1014,0 hPa 0,0 l/m 0,9 km/h SW 16,3 C 20,0 C 6,0 km/h
16.09.2009 11:00 21,8 C 72 % 1013,5 hPa 0,0 l/m 2,4 km/h O-NO 16,4 C 21,8 C 12,9 km/h
16.09.2009 12:00 22,8 C 71 % 1013,0 hPa 0,0 l/m 2,1 km/h NO 17,1 C 22,8 C 8,4 km/h
16.09.2009 13:00 23,3 C 68 % 1012,8 hPa 0,0 l/m 2,2 km/h O 17,0 C 23,3 C 10,9 km/h
16.09.2009 14:00 23,8 C 63 % 1012,3 hPa 0,0 l/m 1,9 km/h O-SO 16,3 C 23,8 C 7,6 km/h
16.09.2009 15:00 24,2 C 59 % 1011,9 hPa 0,0 l/m 3,6 km/h NO 15,7 C 24,2 C 15,3 km/h
16.09.2009 16:00 23,7 C 61 % 1011,7 hPa 0,0 l/m 2,8 km/h S-SO 15,7 C 23,7 C 12,5 km/h
16.09.2009 17:00 23,0 C 66 % 1011,5 hPa 0,0 l/m 1,2 km/h N 16,2 C 23,0 C 8,0 km/h
16.09.2009 18:00 22,1 C 72 % 1011,4 hPa 0,0 l/m 0,2 km/h N 16,7 C 22,1 C 4,0 km/h
16.09.2009 19:00 20,1 C 81 % 1011,1 hPa 0,0 l/m 0,0 km/h N 16,7 C 20,1 C 0,0 km/h
16.09.2009 20:00 19,3 C 84 % 1011,0 hPa 0,0 l/m 0,0 km/h N 16,5 C 19,3 C 0,0 km/h
16.09.2009 21:00 19,4 C 84 % 1011,1 hPa 0,0 l/m 0,1 km/h N 16,5 C 19,4 C 1,6 km/h
16.09.2009 22:00 19,1 C 85 % 1010,8 hPa 0,0 l/m 0,0 km/h N 16,4 C 19,1 C 1,2 km/h
16.09.2009 23:00 18,4 C 88 % 1010,6 hPa 0,0 l/m 0,0 km/h N 16,3 C 18,4 C 0,0 km/h
17.09.2009 00:00 18,0 C 90 % 1010,3 hPa 0,0 l/m 0,0 km/h N 16,2 C 18,0 C 0,0 km/h
17.09.2009 01:00 17,8 C 90 % 1010,1 hPa 0,0 l/m 0,0 km/h N 16,1 C 17,8 C 0,0 km/h
17.09.2009 02:00 17,7 C 91 % 1010,0 hPa 0,0 l/m 0,0 km/h N 16,2 C 17,7 C 0,0 km/h
17.09.2009 03:00 17,5 C 92 % 1009,8 hPa 0,3 l/m 0,0 km/h N 16,1 C 17,5 C 0,0 km/h
17.09.2009 04:00 17,2 C 93 % 1009,6 hPa 0,0 l/m 0,0 km/h N 16,0 C 17,2 C 0,0 km/h
17.09.2009 05:00 17,1 C 93 % 1009,4 hPa 0,3 l/m 0,0 km/h N 16,0 C 17,1 C 0,0 km/h
17.09.2009 06:00 17,1 C 94 % 1009,4 hPa 0,3 l/m 0,0 km/h N 16,0 C 17,1 C 0,0 km/h
17.09.2009 07:00 17,1 C 94 % 1009,9 hPa 0,0 l/m 0,0 km/h N 16,1 C 17,1 C 0,0 km/h
17.09.2009 08:00 17,3 C 94 % 1010,3 hPa 0,0 l/m 0,0 km/h N 16,4 C 17,3 C 0,0 km/h
17.09.2009 09:00 17,3 C 93 % 1010,4 hPa 0,0 l/m 0,0 km/h N 16,1 C 17,3 C 0,0 km/h
17.09.2009 10:00 17,9 C 90 % 1011,1 hPa 0,3 l/m 0,0 km/h N 16,2 C 17,9 C 0,0 km/h
17.09.2009 11:00 18,3 C 88 % 1011,3 hPa 0,0 l/m 0,0 km/h N 16,3 C 18,3 C 0,0 km/h
17.09.2009 12:00 19,3 C 84 % 1011,8 hPa 0,0 l/m 0,0 km/h N 16,5 C 19,3 C 0,0 km/h
17.09.2009 13:00 19,3 C 83 % 1012,2 hPa 0,0 l/m 0,4 km/h N 16,4 C 19,3 C 3,6 km/h
17.09.2009 14:00 19,2 C 83 % 1012,5 hPa 0,0 l/m 0,4 km/h N 16,2 C 19,2 C 3,2 km/h
17.09.2009 15:00 19,0 C 84 % 1012,7 hPa 0,0 l/m 0,4 km/h N 16,2 C 19,0 C 4,8 km/h
17.09.2009 16:00 18,8 C 85 % 1012,9 hPa 0,0 l/m 0,1 km/h N 16,2 C 18,8 C 1,2 km/h
17.09.2009 17:00 18,8 C 86 % 1013,2 hPa 0,0 l/m 0,0 km/h N 16,5 C 18,8 C 0,4 km/h
17.09.2009 18:00 18,8 C 83 % 1013,5 hPa 0,0 l/m 0,0 km/h N 15,9 C 18,8 C 0,8 km/h
17.09.2009 19:00 18,1 C 87 % 1014,0 hPa 0,0 l/m 0,0 km/h N 15,9 C 18,1 C 0,0 km/h
17.09.2009 20:00 17,9 C 90 % 1014,7 hPa 0,0 l/m 0,0 km/h N 16,2 C 17,9 C 0,8 km/h
17.09.2009 21:00 17,9 C 91 % 1015,4 hPa 0,0 l/m 0,0 km/h N 16,3 C 17,9 C 0,0 km/h
17.09.2009 22:00 17,7 C 91 % 1015,7 hPa 0,0 l/m 0,0 km/h N 16,2 C 17,7 C 0,0 km/h
17.09.2009 23:00 17,6 C 90 % 1015,9 hPa 0,0 l/m 0,0 km/h N 15,9 C 17,6 C 0,0 km/h
18.09.2009 00:00 17,7 C 90 % 1015,9 hPa 0,0 l/m 0,0 km/h N 16,0 C 17,7 C 0,4 km/h
18.09.2009 01:00 17,6 C 90 % 1016,0 hPa 0,0 l/m 0,0 km/h N 16,0 C 17,6 C 0,8 km/h
18.09.2009 02:00 17,5 C 91 % 1016,1 hPa 0,0 l/m 0,1 km/h N 16,0 C 17,5 C 1,6 km/h
18.09.2009 03:00 17,4 C 91 % 1016,2 hPa 0,0 l/m 0,0 km/h N 15,9 C 17,4 C 1,2 km/h
18.09.2009 04:00 17,5 C 91 % 1016,3 hPa 0,0 l/m 0,1 km/h N 15,9 C 17,5 C 1,6 km/h
18.09.2009 05:00 17,5 C 89 % 1016,6 hPa 0,0 l/m 0,2 km/h NO 15,7 C 17,5 C 1,6 km/h
18.09.2009 06:00 17,4 C 87 % 1016,9 hPa 0,0 l/m 1,2 km/h N-NW 15,2 C 17,4 C 4,8 km/h
18.09.2009 07:00 17,3 C 87 % 1017,3 hPa 0,0 l/m 0,7 km/h N 15,0 C 17,3 C 4,0 km/h
18.09.2009 08:00 17,5 C 86 % 1017,6 hPa 0,0 l/m 0,7 km/h N 15,1 C 17,5 C 3,6 km/h
18.09.2009 09:00 17,7 C 85 % 1017,9 hPa 0,0 l/m 0,7 km/h N 15,1 C 17,7 C 3,6 km/h
18.09.2009 10:00 18,3 C 83 % 1018,1 hPa 0,0 l/m 0,3 km/h N 15,4 C 18,3 C 2,4 km/h
18.09.2009 11:00 18,8 C 82 % 1018,3 hPa 0,0 l/m 1,5 km/h N 15,6 C 18,8 C 5,6 km/h
18.09.2009 12:00 19,0 C 81 % 1018,3 hPa 0,0 l/m 1,5 km/h N-NW 15,7 C 19,0 C 4,8 km/h
18.09.2009 13:00 19,7 C 78 % 1018,1 hPa 0,0 l/m 1,1 km/h NO 15,6 C 19,7 C 5,2 km/h
18.09.2009 14:00 20,7 C 75 % 1017,7 hPa 0,0 l/m 0,3 km/h N 16,0 C 20,7 C 2,4 km/h
18.09.2009 15:00 21,1 C 74 % 1017,3 hPa 0,0 l/m 0,4 km/h N 16,2 C 21,1 C 3,6 km/h
18.09.2009 16:00 21,9 C 70 % 1017,0 hPa 0,0 l/m 0,9 km/h SW 16,1 C 21,9 C 6,0 km/h
18.09.2009 17:00 21,4 C 72 % 1016,7 hPa 0,0 l/m 0,3 km/h N 16,2 C 21,4 C 2,8 km/h
18.09.2009 18:00 20,4 C 78 % 1016,6 hPa 0,0 l/m 0,0 km/h N 16,3 C 20,4 C 0,8 km/h
18.09.2009 19:00 18,3 C 85 % 1016,9 hPa 0,0 l/m 0,0 km/h N 15,8 C 18,3 C 0,8 km/h
18.09.2009 20:00 17,0 C 90 % 1017,3 hPa 0,0 l/m 0,0 km/h N 15,3 C 17,0 C 0,8 km/h
18.09.2009 21:00 16,7 C 90 % 1017,7 hPa 0,0 l/m 0,0 km/h N 15,1 C 16,7 C 0,4 km/h
18.09.2009 22:00 15,9 C 89 % 1018,0 hPa 0,0 l/m 0,0 km/h N 14,1 C 15,9 C 0,0 km/h
18.09.2009 23:00 15,0 C 90 % 1018,2 hPa 0,0 l/m 0,0 km/h N 13,4 C 15,0 C 0,0 km/h
19.09.2009 00:00 14,2 C 91 % 1018,2 hPa 0,0 l/m 0,0 km/h N 12,8 C 14,2 C 0,0 km/h
19.09.2009 01:00 13,4 C 92 % 1018,0 hPa 0,0 l/m 0,0 km/h N 12,1 C 13,4 C 0,0 km/h
19.09.2009 02:00 13,2 C 92 % 1018,0 hPa 0,0 l/m 0,0 km/h N 11,9 C 13,2 C 0,0 km/h
19.09.2009 03:00 12,7 C 92 % 1017,8 hPa 0,0 l/m 0,0 km/h N 11,5 C 12,7 C 0,0 km/h
19.09.2009 04:00 12,5 C 92 % 1017,6 hPa 0,0 l/m 0,0 km/h N 11,3 C 12,5 C 0,0 km/h
19.09.2009 05:00 11,8 C 92 % 1017,6 hPa 0,0 l/m 0,0 km/h N 10,6 C 11,8 C 0,0 km/h
19.09.2009 06:00 11,2 C 93 % 1017,8 hPa 0,0 l/m 0,0 km/h N 10,1 C 11,2 C 0,0 km/h
19.09.2009 07:00 11,6 C 94 % 1017,8 hPa 0,0 l/m 0,0 km/h N 10,5 C 11,6 C 0,0 km/h
19.09.2009 08:00 13,4 C 93 % 1018,0 hPa 0,0 l/m 0,1 km/h N 12,2 C 13,4 C 1,2 km/h
19.09.2009 09:00 14,2 C 93 % 1018,4 hPa 0,0 l/m 0,2 km/h N 13,1 C 14,2 C 1,2 km/h
19.09.2009 10:00 15,7 C 93 % 1018,3 hPa 0,0 l/m 0,1 km/h N 14,5 C 15,7 C 2,4 km/h
19.09.2009 11:00 18,1 C 83 % 1018,2 hPa 0,0 l/m 1,2 km/h O 15,2 C 18,1 C 6,4 km/h
19.09.2009 12:00 19,8 C 73 % 1018,0 hPa 0,0 l/m 2,4 km/h O 14,7 C 19,8 C 8,4 km/h
19.09.2009 13:00 20,7 C 70 % 1017,8 hPa 0,0 l/m 3,5 km/h O 15,0 C 20,7 C 9,3 km/h
19.09.2009 14:00 21,4 C 69 % 1017,5 hPa 0,0 l/m 2,8 km/h O-SO 15,3 C 21,4 C 8,9 km/h
19.09.2009 15:00 22,3 C 66 % 1017,1 hPa 0,0 l/m 1,9 km/h NO 15,6 C 22,3 C 9,3 km/h
19.09.2009 16:00 22,3 C 66 % 1016,8 hPa 0,0 l/m 1,8 km/h O-SO 15,7 C 22,3 C 10,1 km/h
19.09.2009 17:00 22,0 C 69 % 1016,8 hPa 0,0 l/m 1,3 km/h W-SW 16,1 C 22,0 C 6,0 km/h
19.09.2009 18:00 21,1 C 73 % 1016,5 hPa 0,0 l/m 0,4 km/h N 16,0 C 21,1 C 3,6 km/h
19.09.2009 19:00 19,8 C 77 % 1016,7 hPa 0,0 l/m 0,2 km/h N 15,7 C 19,8 C 3,6 km/h
19.09.2009 20:00 18,3 C 83 % 1017,1 hPa 0,0 l/m 0,1 km/h N 15,3 C 18,3 C 2,4 km/h
19.09.2009 21:00 16,2 C 89 % 1017,4 hPa 0,0 l/m 0,0 km/h N 14,3 C 16,2 C 0,0 km/h
19.09.2009 22:00 15,0 C 91 % 1017,5 hPa 0,0 l/m 0,0 km/h N 13,6 C 15,0 C 0,4 km/h
19.09.2009 23:00 14,9 C 92 % 1017,5 hPa 0,0 l/m 0,1 km/h N 13,6 C 14,9 C 1,2 km/h
20.09.2009 00:00 15,4 C 93 % 1017,5 hPa 0,0 l/m 0,0 km/h N 14,2 C 15,4 C 0,8 km/h
20.09.2009 01:00 14,9 C 92 % 1017,4 hPa 0,0 l/m 0,0 km/h N 13,6 C 14,9 C 0,0 km/h
20.09.2009 02:00 14,5 C 93 % 1017,2 hPa 0,0 l/m 0,0 km/h N 13,2 C 14,5 C 0,0 km/h
20.09.2009 03:00 13,7 C 92 % 1017,1 hPa 0,0 l/m 0,0 km/h N 12,5 C 13,7 C 0,0 km/h
20.09.2009 04:00 13,3 C 93 % 1017,0 hPa 0,0 l/m 0,0 km/h N 12,1 C 13,3 C 0,0 km/h
20.09.2009 05:00 12,4 C 93 % 1017,1 hPa 0,0 l/m 0,0 km/h N 11,3 C 12,4 C 0,0 km/h
20.09.2009 06:00 12,0 C 94 % 1017,4 hPa 0,0 l/m 0,0 km/h N 11,0 C 12,0 C 0,0 km/h
20.09.2009 07:00 12,6 C 94 % 1017,8 hPa 0,0 l/m 0,0 km/h N 11,6 C 12,6 C 0,0 km/h
20.09.2009 08:00 14,6 C 93 % 1018,0 hPa 0,0 l/m 0,0 km/h N 13,5 C 14,6 C 0,0 km/h
20.09.2009 09:00 17,0 C 87 % 1018,3 hPa 0,0 l/m 0,2 km/h N 14,7 C 17,0 C 1,6 km/h
20.09.2009 10:00 18,4 C 80 % 1018,4 hPa 0,0 l/m 0,3 km/h N 14,8 C 18,4 C 3,6 km/h
20.09.2009 11:00 20,1 C 73 % 1018,3 hPa 0,0 l/m 0,5 km/h N 15,1 C 20,1 C 5,2 km/h
20.09.2009 12:00 21,9 C 67 % 1018,4 hPa 0,0 l/m 0,8 km/h S-SW 15,6 C 21,9 C 5,6 km/h
20.09.2009 13:00 23,3 C 65 % 1018,1 hPa 0,0 l/m 1,8 km/h O-SO 16,2 C 23,3 C 7,2 km/h
20.09.2009 14:00 24,0 C 59 % 1017,6 hPa 0,0 l/m 1,1 km/h O 15,3 C 24,0 C 6,4 km/h
20.09.2009 15:00 24,3 C 57 % 1017,4 hPa 0,0 l/m 1,1 km/h N-NO 15,2 C 24,3 C 6,0 km/h
20.09.2009 16:00 24,6 C 55 % 1017,2 hPa 0,0 l/m 1,3 km/h N-NO 14,9 C 24,6 C 7,6 km/h
20.09.2009 17:00 23,8 C 57 % 1017,2 hPa 0,0 l/m 0,6 km/h N 14,8 C 23,8 C 5,6 km/h
20.09.2009 18:00 22,4 C 62 % 1017,3 hPa 0,0 l/m 0,2 km/h N 14,7 C 22,4 C 2,0 km/h
20.09.2009 19:00 19,3 C 74 % 1017,7 hPa 0,0 l/m 0,0 km/h N 14,4 C 19,3 C 0,0 km/h
20.09.2009 20:00 16,9 C 84 % 1018,3 hPa 0,0 l/m 0,0 km/h N 14,1 C 16,9 C 0,4 km/h
20.09.2009 21:00 15,9 C 88 % 1018,7 hPa 0,0 l/m 0,0 km/h N 13,8 C 15,9 C 0,0 km/h
20.09.2009 22:00 14,8 C 90 % 1019,0 hPa 0,0 l/m 0,0 km/h N 13,2 C 14,8 C 0,0 km/h
20.09.2009 23:00 14,3 C 91 % 1019,2 hPa 0,0 l/m 0,0 km/h N 12,8 C 14,3 C 0,0 km/h
Min-Datum _ 19.09.09 20.09.09 17.09.09 - 14.09.09 - 19.09.09 19.09.09 14.09.09
_ Min-Zeit 06:45 16:15 05:30 - 00:00 - 06:30 06:30 00:00
Minimum _ 11,0 C 54 % 1009,3 hPa - 0,0 km/h - 10,0 C 11,1 C 0,0 km/h
Max-Datum _ 20.09.09 15.09.09 20.09.09 14.09.09 16.09.09 - 16.09.09 20.09.09 16.09.09
_ Max-Zeit 16:00 08:00 23:45 21:00 15:30 - 12:45 15:45 15:30
Maximum _ 25,2 C 95 % 1019,3 hPa 2,7 l/m 5,0 km/h
NO
- 17,4 C 25,0 C 22,5 km/h
S-SO
Durchschnitt _ 17,4 C 84 % 1015,5 hPa #8,4 l/m 0,4 km/h O 14,6 C 17,4 C 2,3 km/h